NSO weather

Scone Airport
New South Wales, Australia

Public forecast

Using degrees Celsius for public forecast. Weather courtesy of forecast.io.

Closest aviation weather report (METAR) to Scone Airport

Closest report is Tamworth Airport, 57.2 nm (106.0 km) N. Retrieved 2019/10/17 13:30 UTC (27 minutes ago):

YSTW 171330Z AUTO 25006KT 9999 // NCD 13/M05 Q1018 RF000/0000

Closest aviation forecast (TAF) to Scone Airport

Closest forecast is Tamworth Airport, 57.2 nm (106.0 km) N. Retrieved 2019/10/17 12:36 UTC (1 hour ago):

TAF YSTW 171058Z 1712/1806 25008KT CAVOK BECMG 1715/1717 15004KT CAVOK FM172300 26008KT CAVOK